Pensacola Naval Air Station,Forrest Sherman field Pensacola US
ICAO: KNPA
IATA: NPA
Category: Medium
Scheduled Services: No

Elevation: 28 ft
TransAlt. 18000 ft.

Airport Communications:
APP:120.05
ATIS:26.76
SHERMAN CLNC DEL:134.1
DEP:120.65
SHERMAN GND:121.7
SHERMAN BASE OPS:31.21
PMSV METRO:35.96
SHERMAN TWR:120.7

KNPA Zoom In..

Runways:

(A) RW 01 length 7137 ft width 200 ft
---- / hdg 7

(B) RW 07L length 8002 ft width 200 ft
ILS 109.30 / hdg 70

(C) RW 07R length 8001 ft width 200 ft
---- / hdg 69

(D) RW 19 length 7137 ft width 200 ft
---- / hdg 187

(E) RW 25L length 8001 ft width 200 ft
---- / hdg 249

(F) RW 25R length 8002 ft width 200 ft
---- / hdg 250

Location; KNPA
Day. 25 / Time. 11.56 Zulu
* Altimeter: 30.02
* Temperature: 15° c. 59°f.
* Wind from: 320° Speed 05 kn.
Dewpoint: 13° c.
Visibility: 10 Statute Miles.
Clouds: Few 25000 ft.

KNPA 251156Z 32005KT 10SM FEW250 15/13 A3002 RMK AO2 SLP167 T01500128 10150 20117 53011 $


Wind From 320°
Speed 05 kn.

  YouTube Music Video
 
jpsmedia.com for Web Design  worldairports.se 2018   terms of use